createdAt,value
2022-12-11T00:02:00.742Z,11.27
2022-12-11T00:04:02.361Z,10.47
2022-12-11T00:06:08.459Z,10.47
2022-12-11T00:08:10.472Z,10.80
2022-12-11T00:10:12.128Z,10.17
2022-12-11T00:12:21.072Z,10.17
2022-12-11T00:14:22.602Z,11.23
2022-12-11T00:16:33.009Z,12.80
2022-12-11T00:18:36.486Z,13.00
2022-12-11T00:20:38.288Z,13.10
2022-12-11T00:22:39.848Z,13.50
2022-12-11T00:24:41.234Z,14.17
2022-12-11T00:26:42.989Z,12.13
2022-12-11T00:28:45.116Z,13.37
2022-12-11T00:30:47.787Z,12.03
2022-12-11T00:32:51.795Z,11.73
2022-12-11T00:34:53.385Z,11.17
2022-12-11T00:36:54.942Z,12.20
2022-12-11T00:38:59.349Z,11.57
2022-12-11T00:41:03.131Z,11.43
2022-12-11T00:43:04.972Z,11.27
2022-12-11T00:45:07.794Z,10.73
2022-12-11T00:47:09.521Z,10.67
2022-12-11T00:49:10.966Z,11.23
2022-12-11T00:51:12.860Z,10.97
2022-12-11T00:53:14.586Z,11.27
2022-12-11T00:55:16.386Z,10.50
2022-12-11T00:57:17.940Z,10.60
2022-12-11T00:59:19.336Z,10.00
2022-12-11T01:01:23.376Z,10.67
2022-12-11T01:03:26.549Z,10.60
2022-12-11T01:05:28.519Z,10.23
2022-12-11T01:07:30.026Z,10.93
2022-12-11T01:09:50.481Z,10.77
2022-12-11T01:11:55.344Z,11.23
2022-12-11T01:13:56.883Z,11.03
2022-12-11T01:15:58.940Z,10.37
2022-12-11T01:18:00.824Z,9.90
2022-12-11T01:20:05.538Z,11.10
2022-12-11T01:22:07.124Z,10.50
2022-12-11T01:24:08.683Z,9.97
2022-12-11T01:26:13.917Z,11.03
2022-12-11T01:28:15.430Z,10.23
2022-12-11T01:30:17.647Z,10.40
2022-12-11T01:32:19.171Z,10.27
2022-12-11T01:34:20.773Z,10.73
2022-12-11T01:36:23.951Z,11.00
2022-12-11T01:38:25.537Z,10.70
2022-12-11T01:40:27.354Z,11.20
2022-12-11T01:42:31.998Z,10.50
2022-12-11T01:44:33.852Z,11.67
2022-12-11T01:46:38.864Z,12.10
2022-12-11T01:48:42.323Z,13.20
2022-12-11T01:50:49.155Z,11.67
2022-12-11T01:52:50.989Z,11.60
2022-12-11T01:54:55.798Z,12.37
2022-12-11T01:57:01.685Z,12.97
2022-12-11T01:59:07.611Z,14.00
2022-12-11T02:01:15.162Z,13.77
2022-12-11T02:03:16.752Z,14.13
2022-12-11T02:05:21.270Z,13.77
2022-12-11T02:07:23.572Z,12.90
2022-12-11T02:09:28.896Z,13.37
2022-12-11T02:12:09.291Z,13.07
2022-12-11T02:14:25.870Z,13.03
2022-12-11T02:16:46.350Z,13.17
2022-12-11T02:19:00.447Z,12.47
2022-12-11T02:21:17.298Z,12.57
2022-12-11T02:23:36.832Z,11.77
2022-12-11T02:26:16.063Z,12.30
2022-12-11T02:28:17.671Z,11.40
2022-12-11T11:55:06.595Z,7.47
2022-12-11T11:57:33.016Z,7.43
2022-12-11T11:59:41.159Z,7.43
2022-12-11T12:01:43.903Z,8.50
2022-12-11T12:03:47.746Z,7.80
2022-12-11T12:05:55.677Z,7.83
2022-12-11T12:08:30.576Z,7.60
2022-12-11T12:10:46.455Z,7.87
2022-12-11T12:12:48.018Z,7.73
2022-12-11T12:15:25.522Z,8.00
2022-12-11T12:17:40.995Z,8.30
2022-12-11T12:19:55.153Z,8.03
2022-12-11T12:22:03.732Z,7.47
2022-12-11T12:24:22.599Z,7.43
2022-12-11T12:26:39.237Z,7.93
2022-12-11T12:28:48.963Z,8.30
2022-12-11T12:31:15.398Z,8.03
2022-12-11T12:33:40.938Z,7.97
2022-12-11T12:36:07.033Z,8.53
2022-12-11T12:38:23.301Z,8.27
2022-12-11T12:40:32.993Z,7.10
2022-12-11T12:42:57.481Z,7.17
2022-12-11T12:45:10.100Z,6.97
2022-12-11T12:47:15.364Z,6.67
2022-12-11T12:49:33.005Z,6.70
2022-12-11T12:51:34.817Z,6.17
2022-12-11T12:53:39.972Z,6.30
2022-12-11T12:55:44.501Z,6.83
2022-12-11T12:57:54.045Z,6.73
2022-12-11T12:59:55.836Z,6.40
2022-12-11T13:02:01.886Z,6.57
2022-12-11T13:04:06.710Z,6.00
2022-12-11T13:06:09.971Z,5.83
2022-12-11T13:08:13.090Z,5.47
2022-12-11T13:10:35.942Z,6.00
2022-12-11T13:12:46.009Z,5.63
2022-12-11T13:14:57.105Z,6.27
2022-12-11T13:17:20.292Z,5.63
2022-12-11T13:19:27.439Z,5.27
2022-12-11T13:21:41.064Z,6.03
2022-12-11T13:23:42.745Z,5.03
2022-12-11T13:25:51.482Z,5.47
2022-12-11T13:27:53.555Z,5.20
2022-12-11T13:30:16.865Z,5.20
2022-12-11T13:32:22.839Z,5.13
2022-12-11T13:34:24.865Z,4.73
2022-12-11T13:36:33.130Z,5.03
2022-12-11T13:38:35.813Z,4.60
2022-12-11T13:40:40.705Z,4.30
2022-12-11T13:42:59.681Z,4.67
2022-12-11T13:45:03.029Z,4.57
2022-12-11T13:47:14.088Z,4.07
2022-12-11T13:49:23.210Z,4.20
2022-12-11T13:51:28.758Z,4.27
2022-12-11T13:53:30.503Z,4.10
2022-12-11T13:55:34.538Z,4.73
2022-12-11T13:57:46.103Z,4.60
2022-12-11T13:59:53.368Z,3.70
2022-12-11T14:02:03.877Z,4.60
2022-12-11T14:04:14.031Z,4.77
2022-12-11T14:06:19.087Z,4.50
2022-12-11T14:08:24.280Z,4.27
2022-12-11T14:10:28.679Z,4.53
2022-12-11T14:12:31.866Z,4.67
2022-12-11T14:14:42.800Z,5.13
2022-12-11T14:16:48.557Z,4.47
2022-12-11T14:18:52.199Z,4.70
2022-12-11T14:21:02.500Z,5.03
2022-12-11T14:23:17.917Z,4.87
2022-12-11T14:25:27.664Z,5.50
2022-12-11T14:27:30.448Z,4.87
2022-12-11T14:29:33.691Z,5.23
2022-12-11T14:31:43.733Z,5.90
2022-12-11T14:33:51.690Z,5.40
2022-12-11T14:35:54.850Z,5.67
2022-12-11T14:37:58.661Z,5.67
2022-12-11T14:40:07.338Z,5.37
2022-12-11T14:42:20.560Z,5.23
2022-12-11T14:44:27.395Z,5.40
2022-12-11T14:46:38.265Z,5.27
2022-12-11T14:48:49.265Z,5.73
2022-12-11T14:50:55.088Z,6.10
2022-12-11T14:53:00.795Z,5.73
2022-12-11T14:55:15.929Z,5.87
2022-12-11T14:57:26.528Z,5.20
2022-12-11T14:59:34.726Z,5.27
2022-12-11T15:01:41.147Z,5.50
2022-12-11T15:03:42.993Z,5.50
2022-12-11T15:05:53.779Z,6.07
2022-12-11T15:08:00.366Z,5.87
2022-12-11T15:10:02.260Z,6.00
2022-12-11T15:12:14.356Z,5.80
2022-12-11T15:14:19.016Z,5.50
2022-12-11T15:16:27.898Z,5.33
2022-12-11T15:18:39.337Z,6.30
2022-12-11T15:20:41.004Z,6.40
2022-12-11T15:22:44.610Z,6.27
2022-12-11T15:24:49.897Z,6.90
2022-12-11T15:26:52.149Z,5.57
2022-12-11T15:29:04.565Z,6.03
2022-12-11T15:31:22.538Z,5.73
2022-12-11T15:33:34.356Z,5.83
2022-12-11T15:35:38.900Z,6.23
2022-12-11T15:37:40.652Z,5.57
2022-12-11T15:39:42.503Z,5.60
2022-12-11T15:41:44.298Z,5.83
2022-12-11T15:43:46.179Z,6.37
2022-12-11T15:45:55.535Z,6.43
2022-12-11T15:47:57.643Z,5.87
2022-12-11T15:50:18.144Z,6.67
2022-12-11T15:52:22.590Z,5.97
2022-12-11T15:54:24.507Z,5.53
2022-12-11T15:56:26.256Z,5.70
2022-12-11T15:58:28.230Z,5.67
2022-12-11T16:00:30.455Z,5.50
2022-12-11T16:02:32.661Z,5.43
2022-12-11T16:04:34.512Z,5.43
2022-12-11T16:06:36.501Z,5.40
2022-12-11T16:08:38.198Z,5.80
2022-12-11T16:10:40.003Z,6.00
2022-12-11T16:12:47.200Z,5.97
2022-12-11T16:14:48.912Z,6.10
2022-12-11T16:16:51.541Z,6.93
2022-12-11T16:18:53.305Z,6.90
2022-12-11T16:20:57.664Z,6.77
2022-12-11T16:23:00.415Z,6.80
2022-12-11T16:25:03.661Z,7.20
2022-12-11T16:27:07.860Z,7.63
2022-12-11T16:29:09.513Z,7.90
2022-12-11T16:31:15.937Z,8.67
2022-12-11T16:33:21.132Z,8.10
2022-12-11T16:35:23.212Z,8.10
2022-12-11T16:37:25.299Z,8.27
2022-12-11T16:39:30.604Z,9.93
2022-12-11T16:41:34.864Z,9.77
2022-12-11T16:43:42.074Z,9.47
2022-12-11T16:45:43.874Z,8.77
2022-12-11T16:47:45.486Z,8.67
2022-12-11T16:49:47.338Z,8.60
2022-12-11T16:51:52.557Z,8.63
2022-12-11T16:53:54.338Z,8.07
2022-12-11T16:55:55.943Z,8.63
2022-12-11T16:57:57.628Z,7.93
2022-12-11T16:59:59.312Z,7.90
2022-12-11T17:02:01.258Z,7.30
2022-12-11T17:04:03.013Z,7.93
2022-12-11T17:06:13.860Z,7.90
2022-12-11T17:08:15.418Z,7.97
2022-12-11T17:10:20.764Z,8.00
2022-12-11T17:12:27.586Z,7.83
2022-12-11T17:14:29.295Z,7.80
2022-12-11T17:16:31.239Z,7.73
2022-12-11T17:18:35.435Z,8.13
2022-12-11T17:20:44.297Z,9.00
2022-12-11T17:22:45.972Z,7.47
2022-12-11T17:24:47.939Z,7.70
2022-12-11T17:26:49.611Z,8.37
2022-12-11T17:28:52.050Z,8.70
2022-12-11T17:30:53.728Z,8.20
2022-12-11T17:32:55.402Z,8.70
2022-12-11T17:34:57.208Z,7.97
2022-12-11T17:36:58.961Z,8.57
2022-12-11T17:39:00.865Z,8.70
2022-12-11T17:41:09.067Z,7.80
2022-12-11T17:43:14.903Z,8.20
2022-12-11T17:45:19.649Z,8.43
2022-12-11T17:47:21.501Z,9.60
2022-12-11T17:49:23.320Z,9.03
2022-12-11T17:51:26.250Z,9.53
2022-12-11T17:53:35.845Z,9.27
2022-12-11T17:55:44.149Z,9.17
2022-12-11T17:57:50.187Z,9.60
2022-12-11T17:59:56.493Z,8.87
2022-12-11T18:02:02.596Z,9.37
2022-12-11T18:04:04.242Z,9.03
2022-12-11T18:06:13.466Z,9.50
2022-12-11T18:08:16.997Z,9.20
2022-12-11T18:10:18.792Z,9.10
2022-12-11T18:12:20.386Z,9.53
2022-12-11T18:14:22.000Z,9.57
2022-12-11T18:16:27.892Z,8.90
2022-12-11T18:18:30.574Z,9.90
2022-12-11T18:20:36.072Z,9.07
2022-12-11T18:22:42.511Z,9.27
2022-12-11T18:24:44.168Z,9.93
2022-12-11T18:26:46.747Z,10.23
2022-12-11T18:28:51.050Z,10.30
2022-12-11T18:30:52.725Z,10.53
2022-12-11T18:32:59.102Z,9.50
2022-12-11T18:35:02.255Z,9.27
2022-12-11T18:37:03.838Z,11.30
2022-12-11T18:39:05.446Z,10.90
2022-12-11T18:41:09.702Z,12.27
2022-12-11T18:43:11.407Z,12.40
2022-12-11T18:45:13.720Z,12.50
2022-12-11T18:47:17.913Z,11.37
2022-12-11T18:49:22.074Z,11.97
2022-12-11T18:51:24.515Z,12.33
2022-12-11T18:53:26.169Z,11.23
2022-12-11T18:55:27.972Z,11.60
2022-12-11T18:57:29.664Z,10.60
2022-12-11T18:59:31.454Z,10.90
2022-12-11T19:01:37.023Z,11.40
2022-12-11T19:03:38.884Z,11.50
2022-12-11T19:05:43.759Z,11.33
2022-12-11T19:07:48.528Z,10.97
2022-12-11T19:09:50.328Z,11.23
2022-12-11T19:11:53.162Z,10.83
2022-12-11T19:13:58.749Z,10.17
2022-12-11T19:16:03.627Z,9.90
2022-12-11T19:18:05.954Z,10.33
2022-12-11T19:20:32.264Z,10.17
2022-12-11T19:22:31.160Z,11.67
2022-12-11T19:24:33.053Z,11.13
2022-12-11T19:26:34.817Z,13.10
2022-12-11T19:28:36.629Z,13.27
2022-12-11T19:30:49.776Z,12.63
2022-12-11T19:32:51.416Z,13.10
2022-12-11T19:34:55.999Z,12.03
2022-12-11T19:36:58.054Z,11.67
2022-12-11T19:39:02.091Z,12.30
2022-12-11T19:41:09.353Z,11.20
2022-12-11T19:43:11.367Z,12.80
2022-12-11T19:45:13.877Z,12.00
2022-12-11T19:47:15.955Z,12.30
2022-12-11T19:49:26.636Z,12.27
2022-12-11T19:51:33.763Z,12.53
2022-12-11T19:53:36.037Z,13.03
2022-12-11T19:55:37.798Z,12.03
2022-12-11T19:57:42.846Z,12.43
2022-12-11T19:59:44.461Z,13.00
2022-12-11T20:01:48.239Z,12.90
2022-12-11T20:03:51.198Z,13.67
2022-12-11T20:05:58.986Z,13.40
2022-12-11T20:08:20.549Z,12.97
2022-12-11T20:10:25.251Z,13.03
2022-12-11T20:12:27.154Z,13.60
2022-12-11T20:14:29.008Z,14.43
2022-12-11T20:16:53.709Z,14.00
2022-12-11T20:18:54.493Z,14.03
2022-12-11T20:20:59.707Z,14.03
2022-12-11T20:23:01.412Z,14.07
2022-12-11T20:25:02.891Z,12.83
2022-12-11T20:27:04.691Z,13.03
2022-12-11T20:29:08.164Z,13.73
2022-12-11T20:31:19.535Z,13.87
2022-12-11T20:33:22.463Z,14.13
2022-12-11T20:35:26.317Z,13.93
2022-12-11T20:37:29.157Z,14.07
2022-12-11T20:39:31.937Z,14.37
2022-12-11T20:41:35.780Z,13.50
2022-12-11T20:43:39.038Z,13.30
2022-12-11T20:45:41.720Z,13.40
2022-12-11T20:47:43.531Z,13.57
2022-12-11T20:49:45.345Z,13.70
2022-12-11T20:51:46.993Z,13.43
2022-12-11T20:53:57.573Z,13.77
2022-12-11T20:55:59.397Z,12.73
2022-12-11T20:58:01.800Z,12.73
2022-12-11T21:00:05.761Z,13.47
2022-12-11T21:02:09.231Z,12.93
2022-12-11T21:04:11.503Z,12.90
2022-12-11T21:06:30.792Z,12.70
2022-12-11T21:08:32.653Z,12.70
2022-12-11T21:10:34.920Z,11.77
2022-12-11T21:12:38.117Z,12.87
2022-12-11T21:14:45.650Z,12.00
2022-12-11T21:16:47.425Z,12.60
2022-12-11T21:18:49.305Z,12.67
2022-12-11T21:20:56.205Z,13.03
2022-12-11T21:22:57.890Z,11.57
2022-12-11T21:25:02.455Z,11.50
2022-12-11T21:27:04.109Z,11.83
2022-12-11T21:29:05.961Z,11.80
2022-12-11T21:31:12.154Z,10.60
2022-12-11T21:33:14.770Z,10.90
2022-12-11T21:35:16.691Z,10.23
2022-12-11T21:37:18.350Z,10.63
2022-12-11T21:39:20.298Z,10.00
2022-12-11T21:41:26.716Z,10.17
2022-12-11T21:43:28.455Z,9.97
2022-12-11T21:47:52.043Z,9.77
2022-12-11T21:49:53.795Z,11.23
2022-12-11T21:51:55.374Z,10.13
2022-12-11T21:53:57.214Z,10.23
2022-12-11T21:55:58.760Z,9.80
2022-12-11T21:58:00.238Z,11.07
2022-12-11T22:00:01.944Z,10.37
2022-12-11T22:02:13.485Z,10.17
2022-12-11T22:04:15.945Z,9.90
2022-12-11T22:06:18.341Z,10.63
2022-12-11T22:08:20.120Z,10.93
2022-12-11T22:10:23.045Z,10.43
2022-12-11T22:12:27.664Z,9.77
2022-12-11T22:14:31.358Z,10.30
2022-12-11T22:16:35.304Z,10.53
2022-12-11T22:18:37.188Z,10.33
2022-12-11T22:20:40.032Z,10.47
2022-12-11T22:22:41.993Z,9.97
2022-12-11T22:24:43.688Z,10.70
2022-12-11T22:26:45.379Z,10.47
2022-12-11T22:28:48.025Z,10.67
2022-12-11T22:30:52.304Z,11.17
2022-12-11T22:32:54.151Z,10.63
2022-12-11T22:34:57.792Z,10.47
2022-12-11T22:36:59.353Z,11.03
2022-12-11T22:39:01.739Z,10.67
2022-12-11T22:41:22.004Z,9.70
2022-12-11T22:43:23.872Z,9.50
2022-12-11T22:45:25.976Z,9.13
2022-12-11T22:47:27.655Z,9.97
2022-12-11T22:49:29.249Z,9.43
2022-12-11T22:51:30.856Z,10.23
2022-12-11T22:53:33.885Z,9.30
2022-12-11T22:55:39.215Z,9.03
2022-12-11T22:57:41.462Z,9.73
2022-12-11T22:59:43.234Z,10.17
2022-12-11T23:01:45.087Z,10.03
2022-12-11T23:03:47.130Z,10.73
2022-12-11T23:05:48.795Z,11.03
2022-12-11T23:07:50.528Z,10.63
2022-12-11T23:09:52.418Z,10.70
2022-12-11T23:11:55.865Z,10.77
2022-12-11T23:13:57.953Z,10.87
2022-12-11T23:15:59.514Z,11.67
2022-12-11T23:18:01.105Z,11.63
2022-12-11T23:20:05.879Z,11.03
2022-12-11T23:22:10.929Z,11.03
2022-12-11T23:24:14.269Z,11.80
2022-12-11T23:26:18.697Z,12.33
2022-12-11T23:28:20.303Z,10.67
2022-12-11T23:30:23.776Z,11.07
2022-12-11T23:32:25.385Z,12.37
2022-12-11T23:34:26.969Z,12.43
2022-12-11T23:36:28.829Z,11.70
2022-12-11T23:38:30.660Z,12.13
2022-12-11T23:40:35.379Z,11.30
2022-12-11T23:42:40.608Z,11.10
2022-12-11T23:44:42.180Z,10.87
2022-12-11T23:46:44.996Z,10.40
2022-12-11T23:48:46.931Z,10.60
2022-12-11T23:50:49.773Z,9.67
2022-12-11T23:52:51.485Z,10.13
2022-12-11T23:54:53.092Z,11.70
2022-12-11T23:56:54.720Z,10.70
2022-12-11T23:58:57.113Z,10.20
